sensor_id;sensor_type;location;lat;lon;timestamp;temperature;humidity
17992;DHT22;9121;50.926;5.340;2023-12-22T00:02:07;8.40;96.80
17992;DHT22;9121;50.926;5.340;2023-12-22T00:04:34;8.40;99.90
17992;DHT22;9121;50.926;5.340;2023-12-22T00:07:03;8.40;99.90
17992;DHT22;9121;50.926;5.340;2023-12-22T00:09:30;8.40;99.90
17992;DHT22;9121;50.926;5.340;2023-12-22T00:11:57;8.50;99.90
17992;DHT22;9121;50.926;5.340;2023-12-22T00:14:24;8.60;99.90
17992;DHT22;9121;50.926;5.340;2023-12-22T00:16:51;8.60;99.90
17992;DHT22;9121;50.926;5.340;2023-12-22T00:19:17;8.70;99.90
17992;DHT22;9121;50.926;5.340;2023-12-22T00:21:44;8.80;99.90
17992;DHT22;9121;50.926;5.340;2023-12-22T00:24:13;8.90;99.90
17992;DHT22;9121;50.926;5.340;2023-12-22T00:26:40;9.00;99.90
17992;DHT22;9121;50.926;5.340;2023-12-22T00:29:07;9.00;96.30
17992;DHT22;9121;50.926;5.340;2023-12-22T00:31:33;9.10;89.40
17992;DHT22;9121;50.926;5.340;2023-12-22T00:34:00;9.10;78.00
17992;DHT22;9121;50.926;5.340;2023-12-22T00:36:27;9.20;61.50
17992;DHT22;9121;50.926;5.340;2023-12-22T00:38:54;9.20;59.40
17992;DHT22;9121;50.926;5.340;2023-12-22T00:41:23;9.20;55.90
17992;DHT22;9121;50.926;5.340;2023-12-22T00:43:50;9.30;52.80
17992;DHT22;9121;50.926;5.340;2023-12-22T00:46:17;9.30;54.20
17992;DHT22;9121;50.926;5.340;2023-12-22T00:48:45;9.30;53.50
17992;DHT22;9121;50.926;5.340;2023-12-22T00:51:12;9.40;52.10
17992;DHT22;9121;50.926;5.340;2023-12-22T00:53:39;9.50;44.40
17992;DHT22;9121;50.926;5.340;2023-12-22T00:56:06;9.50;21.20
17992;DHT22;9121;50.926;5.340;2023-12-22T00:58:34;9.60;30.90
17992;DHT22;9121;50.926;5.340;2023-12-22T01:01:01;9.60;35.30
17992;DHT22;9121;50.926;5.340;2023-12-22T01:03:28;9.60;28.70
17992;DHT22;9121;50.926;5.340;2023-12-22T01:05:55;9.60;14.70
17992;DHT22;9121;50.926;5.340;2023-12-22T01:08:22;9.60;9.20
17992;DHT22;9121;50.926;5.340;2023-12-22T01:10:49;9.70;8.70
17992;DHT22;9121;50.926;5.340;2023-12-22T01:13:16;9.70;1.40
17992;DHT22;9121;50.926;5.340;2023-12-22T01:15:44;9.70;1.00
17992;DHT22;9121;50.926;5.340;2023-12-22T01:18:11;9.70;1.00
17992;DHT22;9121;50.926;5.340;2023-12-22T01:20:38;9.70;1.00
17992;DHT22;9121;50.926;5.340;2023-12-22T01:23:05;9.70;1.00
17992;DHT22;9121;50.926;5.340;2023-12-22T01:25:33;9.70;1.00
17992;DHT22;9121;50.926;5.340;2023-12-22T01:27:59;9.80;1.00
17992;DHT22;9121;50.926;5.340;2023-12-22T01:30:26;9.80;1.00
17992;DHT22;9121;50.926;5.340;2023-12-22T01:32:55;9.80;1.00
17992;DHT22;9121;50.926;5.340;2023-12-22T01:35:22;9.80;1.00
17992;DHT22;9121;50.926;5.340;2023-12-22T01:37:49;9.90;1.00
17992;DHT22;9121;50.926;5.340;2023-12-22T01:40:16;9.90;1.00
17992;DHT22;9121;50.926;5.340;2023-12-22T01:42:43;9.90;1.00
17992;DHT22;9121;50.926;5.340;2023-12-22T01:45:11;9.90;1.00
17992;DHT22;9121;50.926;5.340;2023-12-22T01:47:38;9.90;1.00
17992;DHT22;9121;50.926;5.340;2023-12-22T01:50:07;9.90;1.00
17992;DHT22;9121;50.926;5.340;2023-12-22T01:52:36;9.90;1.00
17992;DHT22;9121;50.926;5.340;2023-12-22T01:55:04;9.80;1.00
17992;DHT22;9121;50.926;5.340;2023-12-22T01:57:33;9.90;1.00
17992;DHT22;9121;50.926;5.340;2023-12-22T02:00:01;9.90;1.00
17992;DHT22;9121;50.926;5.340;2023-12-22T02:02:29;9.90;1.00
17992;DHT22;9121;50.926;5.340;2023-12-22T02:04:57;9.90;1.00
17992;DHT22;9121;50.926;5.340;2023-12-22T02:07:26;9.90;1.00
17992;DHT22;9121;50.926;5.340;2023-12-22T02:09:53;9.90;1.00
17992;DHT22;9121;50.926;5.340;2023-12-22T02:12:20;9.90;1.00
17992;DHT22;9121;50.926;5.340;2023-12-22T02:14:47;9.80;1.00
17992;DHT22;9121;50.926;5.340;2023-12-22T02:17:20;9.60;1.00
17992;DHT22;9121;50.926;5.340;2023-12-22T02:19:51;9.60;1.00
17992;DHT22;9121;50.926;5.340;2023-12-22T02:22:18;9.50;1.00
17992;DHT22;9121;50.926;5.340;2023-12-22T02:24:46;9.50;1.00
17992;DHT22;9121;50.926;5.340;2023-12-22T02:27:21;9.60;1.00
17992;DHT22;9121;50.926;5.340;2023-12-22T02:29:51;9.70;1.00
17992;DHT22;9121;50.926;5.340;2023-12-22T02:32:25;9.70;1.00
17992;DHT22;9121;50.926;5.340;2023-12-22T02:34:55;9.60;1.00
17992;DHT22;9121;50.926;5.340;2023-12-22T02:37:23;9.50;1.00
17992;DHT22;9121;50.926;5.340;2023-12-22T02:39:52;9.50;1.00
17992;DHT22;9121;50.926;5.340;2023-12-22T02:42:21;9.50;1.00
17992;DHT22;9121;50.926;5.340;2023-12-22T02:44:55;9.50;1.00
17992;DHT22;9121;50.926;5.340;2023-12-22T02:47:22;9.50;1.00
17992;DHT22;9121;50.926;5.340;2023-12-22T02:49:49;9.50;5.10
17992;DHT22;9121;50.926;5.340;2023-12-22T02:52:16;9.50;1.00
17992;DHT22;9121;50.926;5.340;2023-12-22T02:54:43;9.50;1.00
17992;DHT22;9121;50.926;5.340;2023-12-22T02:57:12;9.50;1.00
17992;DHT22;9121;50.926;5.340;2023-12-22T02:59:39;9.60;1.00
17992;DHT22;9121;50.926;5.340;2023-12-22T03:02:06;9.60;1.00
17992;DHT22;9121;50.926;5.340;2023-12-22T03:04:33;9.60;1.00
17992;DHT22;9121;50.926;5.340;2023-12-22T03:06:59;9.60;1.00
17992;DHT22;9121;50.926;5.340;2023-12-22T03:09:26;9.60;1.00
17992;DHT22;9121;50.926;5.340;2023-12-22T03:11:53;9.70;1.00
17992;DHT22;9121;50.926;5.340;2023-12-22T03:14:24;9.70;1.00
17992;DHT22;9121;50.926;5.340;2023-12-22T03:16:51;9.70;1.00
17992;DHT22;9121;50.926;5.340;2023-12-22T03:19:18;9.70;1.00
17992;DHT22;9121;50.926;5.340;2023-12-22T03:21:44;9.70;1.00
17992;DHT22;9121;50.926;5.340;2023-12-22T03:24:11;9.80;1.00
17992;DHT22;9121;50.926;5.340;2023-12-22T03:26:38;9.60;1.00
17992;DHT22;9121;50.926;5.340;2023-12-22T03:29:05;9.30;1.00
17992;DHT22;9121;50.926;5.340;2023-12-22T03:31:33;9.20;1.00
17992;DHT22;9121;50.926;5.340;2023-12-22T03:34:01;9.20;1.00
17992;DHT22;9121;50.926;5.340;2023-12-22T03:36:27;9.30;1.00
17992;DHT22;9121;50.926;5.340;2023-12-22T03:38:54;9.30;1.00
17992;DHT22;9121;50.926;5.340;2023-12-22T03:41:21;9.40;1.00
17992;DHT22;9121;50.926;5.340;2023-12-22T03:43:48;9.50;1.00
17992;DHT22;9121;50.926;5.340;2023-12-22T03:46:15;9.50;1.00
17992;DHT22;9121;50.926;5.340;2023-12-22T03:48:44;9.50;1.00
17992;DHT22;9121;50.926;5.340;2023-12-22T03:51:12;9.60;1.00
17992;DHT22;9121;50.926;5.340;2023-12-22T03:53:40;9.70;1.00
17992;DHT22;9121;50.926;5.340;2023-12-22T03:56:07;9.70;1.00
17992;DHT22;9121;50.926;5.340;2023-12-22T03:58:35;9.70;1.00
17992;DHT22;9121;50.926;5.340;2023-12-22T04:01:03;9.70;1.00
17992;DHT22;9121;50.926;5.340;2023-12-22T04:03:30;9.80;1.00
17992;DHT22;9121;50.926;5.340;2023-12-22T04:06:01;9.90;1.00
17992;DHT22;9121;50.926;5.340;2023-12-22T04:08:28;9.90;1.00
17992;DHT22;9121;50.926;5.340;2023-12-22T04:10:55;9.90;1.00
17992;DHT22;9121;50.926;5.340;2023-12-22T04:13:22;9.90;1.00
17992;DHT22;9121;50.926;5.340;2023-12-22T04:15:49;9.90;1.00
17992;DHT22;9121;50.926;5.340;2023-12-22T04:18:16;9.90;1.00
17992;DHT22;9121;50.926;5.340;2023-12-22T04:20:43;10.00;1.00
17992;DHT22;9121;50.926;5.340;2023-12-22T04:23:11;10.00;1.00
17992;DHT22;9121;50.926;5.340;2023-12-22T04:25:38;10.00;1.00
17992;DHT22;9121;50.926;5.340;2023-12-22T04:28:05;10.00;1.00
17992;DHT22;9121;50.926;5.340;2023-12-22T04:30:32;9.90;1.00
17992;DHT22;9121;50.926;5.340;2023-12-22T04:32:59;9.90;1.00
17992;DHT22;9121;50.926;5.340;2023-12-22T04:35:27;9.90;1.00
17992;DHT22;9121;50.926;5.340;2023-12-22T04:37:54;9.90;1.00
17992;DHT22;9121;50.926;5.340;2023-12-22T04:40:22;9.90;1.00
17992;DHT22;9121;50.926;5.340;2023-12-22T04:42:49;9.90;1.00
17992;DHT22;9121;50.926;5.340;2023-12-22T04:45:16;9.90;1.00
17992;DHT22;9121;50.926;5.340;2023-12-22T04:47:44;9.50;1.00
17992;DHT22;9121;50.926;5.340;2023-12-22T04:50:11;9.20;10.30
17992;DHT22;9121;50.926;5.340;2023-12-22T04:52:37;9.10;34.60
17992;DHT22;9121;50.926;5.340;2023-12-22T04:55:05;9.10;40.20
17992;DHT22;9121;50.926;5.340;2023-12-22T04:57:33;9.10;29.50
17992;DHT22;9121;50.926;5.340;2023-12-22T05:00:00;9.20;5.70
17992;DHT22;9121;50.926;5.340;2023-12-22T05:02:27;9.30;1.00
17992;DHT22;9121;50.926;5.340;2023-12-22T05:04:54;9.40;1.00
17992;DHT22;9121;50.926;5.340;2023-12-22T05:07:21;9.40;1.00
17992;DHT22;9121;50.926;5.340;2023-12-22T05:09:48;9.50;1.00
17992;DHT22;9121;50.926;5.340;2023-12-22T05:12:15;9.50;1.00
17992;DHT22;9121;50.926;5.340;2023-12-22T05:14:43;9.60;1.00
17992;DHT22;9121;50.926;5.340;2023-12-22T05:17:10;9.60;1.00
17992;DHT22;9121;50.926;5.340;2023-12-22T05:19:37;9.50;1.00
17992;DHT22;9121;50.926;5.340;2023-12-22T05:22:04;9.50;1.00
17992;DHT22;9121;50.926;5.340;2023-12-22T05:24:31;9.50;1.00
17992;DHT22;9121;50.926;5.340;2023-12-22T05:26:58;9.50;1.00
17992;DHT22;9121;50.926;5.340;2023-12-22T05:29:25;9.50;1.00
17992;DHT22;9121;50.926;5.340;2023-12-22T05:31:53;9.40;13.50
17992;DHT22;9121;50.926;5.340;2023-12-22T05:34:20;9.20;71.30
17992;DHT22;9121;50.926;5.340;2023-12-22T05:36:47;9.10;99.00
17992;DHT22;9121;50.926;5.340;2023-12-22T05:39:14;9.10;99.90
17992;DHT22;9121;50.926;5.340;2023-12-22T05:41:41;9.20;99.90
17992;DHT22;9121;50.926;5.340;2023-12-22T05:44:08;9.20;99.90
17992;DHT22;9121;50.926;5.340;2023-12-22T05:46:38;9.30;99.90
17992;DHT22;9121;50.926;5.340;2023-12-22T05:49:06;9.20;99.90
17992;DHT22;9121;50.926;5.340;2023-12-22T05:51:37;9.20;99.90
17992;DHT22;9121;50.926;5.340;2023-12-22T05:54:05;9.20;99.80
17992;DHT22;9121;50.926;5.340;2023-12-22T05:56:32;9.20;99.60
17992;DHT22;9121;50.926;5.340;2023-12-22T05:58:59;9.20;99.40
17992;DHT22;9121;50.926;5.340;2023-12-22T06:01:26;9.20;97.80
17992;DHT22;9121;50.926;5.340;2023-12-22T06:03:53;9.20;97.70
17992;DHT22;9121;50.926;5.340;2023-12-22T06:06:22;9.20;96.50
17992;DHT22;9121;50.926;5.340;2023-12-22T06:08:49;9.20;98.10
17992;DHT22;9121;50.926;5.340;2023-12-22T06:11:16;9.20;99.50
17992;DHT22;9121;50.926;5.340;2023-12-22T06:13:43;9.20;99.90
17992;DHT22;9121;50.926;5.340;2023-12-22T06:16:13;9.20;99.20
17992;DHT22;9121;50.926;5.340;2023-12-22T06:18:40;9.20;98.20
17992;DHT22;9121;50.926;5.340;2023-12-22T06:21:09;9.20;99.30
17992;DHT22;9121;50.926;5.340;2023-12-22T06:23:37;9.10;99.90
17992;DHT22;9121;50.926;5.340;2023-12-22T06:26:08;9.00;99.90
17992;DHT22;9121;50.926;5.340;2023-12-22T06:28:35;9.00;99.90
17992;DHT22;9121;50.926;5.340;2023-12-22T06:31:04;9.00;99.90
17992;DHT22;9121;50.926;5.340;2023-12-22T06:33:31;9.00;99.90
17992;DHT22;9121;50.926;5.340;2023-12-22T06:35:58;9.00;99.90
17992;DHT22;9121;50.926;5.340;2023-12-22T06:38:25;9.00;99.90
17992;DHT22;9121;50.926;5.340;2023-12-22T06:40:53;9.10;99.90
17992;DHT22;9121;50.926;5.340;2023-12-22T06:43:20;9.10;99.90
17992;DHT22;9121;50.926;5.340;2023-12-22T06:45:47;9.10;99.90
17992;DHT22;9121;50.926;5.340;2023-12-22T06:48:15;9.10;99.90
17992;DHT22;9121;50.926;5.340;2023-12-22T06:50:42;8.90;99.90
17992;DHT22;9121;50.926;5.340;2023-12-22T06:53:10;8.80;99.90
17992;DHT22;9121;50.926;5.340;2023-12-22T06:55:37;8.90;99.90
17992;DHT22;9121;50.926;5.340;2023-12-22T06:58:05;8.90;99.90
17992;DHT22;9121;50.926;5.340;2023-12-22T07:00:33;8.90;99.90
17992;DHT22;9121;50.926;5.340;2023-12-22T07:03:03;8.90;99.90
17992;DHT22;9121;50.926;5.340;2023-12-22T07:05:34;8.80;99.90
17992;DHT22;9121;50.926;5.340;2023-12-22T07:08:04;8.80;99.90
17992;DHT22;9121;50.926;5.340;2023-12-22T07:10:31;8.80;99.90
17992;DHT22;9121;50.926;5.340;2023-12-22T07:12:58;8.80;99.90
17992;DHT22;9121;50.926;5.340;2023-12-22T07:15:27;8.80;99.90
17992;DHT22;9121;50.926;5.340;2023-12-22T07:17:54;8.90;99.90
17992;DHT22;9121;50.926;5.340;2023-12-22T07:20:21;8.90;99.90
17992;DHT22;9121;50.926;5.340;2023-12-22T07:22:48;9.00;99.90
17992;DHT22;9121;50.926;5.340;2023-12-22T07:25:16;9.00;99.90
17992;DHT22;9121;50.926;5.340;2023-12-22T07:27:45;9.00;99.90
17992;DHT22;9121;50.926;5.340;2023-12-22T07:30:13;9.10;99.90
17992;DHT22;9121;50.926;5.340;2023-12-22T07:32:44;9.10;99.90
17992;DHT22;9121;50.926;5.340;2023-12-22T07:35:13;9.10;99.90
17992;DHT22;9121;50.926;5.340;2023-12-22T07:37:40;9.20;99.90
17992;DHT22;9121;50.926;5.340;2023-12-22T07:40:08;9.20;99.90
17992;DHT22;9121;50.926;5.340;2023-12-22T07:42:35;9.20;99.90
17992;DHT22;9121;50.926;5.340;2023-12-22T07:45:04;9.20;99.90
17992;DHT22;9121;50.926;5.340;2023-12-22T07:47:31;9.20;99.90
17992;DHT22;9121;50.926;5.340;2023-12-22T07:49:59;9.20;99.90
17992;DHT22;9121;50.926;5.340;2023-12-22T07:52:26;9.20;99.90
17992;DHT22;9121;50.926;5.340;2023-12-22T07:54:53;9.20;99.90
17992;DHT22;9121;50.926;5.340;2023-12-22T07:57:20;9.20;99.90
17992;DHT22;9121;50.926;5.340;2023-12-22T07:59:47;9.20;99.90
17992;DHT22;9121;50.926;5.340;2023-12-22T08:02:14;9.20;99.90
17992;DHT22;9121;50.926;5.340;2023-12-22T08:04:41;9.30;99.90
17992;DHT22;9121;50.926;5.340;2023-12-22T08:07:12;9.20;99.90
17992;DHT22;9121;50.926;5.340;2023-12-22T08:09:39;9.20;99.90
17992;DHT22;9121;50.926;5.340;2023-12-22T08:12:07;9.30;99.90
17992;DHT22;9121;50.926;5.340;2023-12-22T08:14:34;9.20;99.90
17992;DHT22;9121;50.926;5.340;2023-12-22T08:17:02;9.20;99.90
17992;DHT22;9121;50.926;5.340;2023-12-22T08:19:29;9.10;99.90
17992;DHT22;9121;50.926;5.340;2023-12-22T08:21:56;9.10;99.90
17992;DHT22;9121;50.926;5.340;2023-12-22T08:24:24;9.10;99.90
17992;DHT22;9121;50.926;5.340;2023-12-22T08:26:51;9.00;99.90
17992;DHT22;9121;50.926;5.340;2023-12-22T08:29:18;8.90;99.90
17992;DHT22;9121;50.926;5.340;2023-12-22T08:31:45;8.90;99.90
17992;DHT22;9121;50.926;5.340;2023-12-22T08:34:12;8.90;99.90
17992;DHT22;9121;50.926;5.340;2023-12-22T08:36:39;8.90;99.90
17992;DHT22;9121;50.926;5.340;2023-12-22T08:39:06;8.90;99.90
17992;DHT22;9121;50.926;5.340;2023-12-22T08:41:34;8.90;99.90
17992;DHT22;9121;50.926;5.340;2023-12-22T08:44:04;8.80;99.90
17992;DHT22;9121;50.926;5.340;2023-12-22T08:46:31;8.80;99.90
17992;DHT22;9121;50.926;5.340;2023-12-22T08:48:58;8.80;99.90
17992;DHT22;9121;50.926;5.340;2023-12-22T08:51:25;8.90;99.90
17992;DHT22;9121;50.926;5.340;2023-12-22T08:53:53;8.90;99.90
17992;DHT22;9121;50.926;5.340;2023-12-22T08:56:20;8.90;99.90
17992;DHT22;9121;50.926;5.340;2023-12-22T08:58:50;9.00;99.90
17992;DHT22;9121;50.926;5.340;2023-12-22T09:01:18;9.00;99.90
17992;DHT22;9121;50.926;5.340;2023-12-22T09:03:45;9.00;99.90
17992;DHT22;9121;50.926;5.340;2023-12-22T09:06:14;9.00;99.90
17992;DHT22;9121;50.926;5.340;2023-12-22T09:08:41;9.00;99.90
17992;DHT22;9121;50.926;5.340;2023-12-22T09:11:10;9.10;99.90
17992;DHT22;9121;50.926;5.340;2023-12-22T09:13:37;9.20;99.90
17992;DHT22;9121;50.926;5.340;2023-12-22T09:16:06;9.20;99.90
17992;DHT22;9121;50.926;5.340;2023-12-22T09:18:33;9.30;99.90
17992;DHT22;9121;50.926;5.340;2023-12-22T09:21:00;9.30;99.90
17992;DHT22;9121;50.926;5.340;2023-12-22T09:23:28;9.30;99.90
17992;DHT22;9121;50.926;5.340;2023-12-22T09:25:55;9.30;99.90
17992;DHT22;9121;50.926;5.340;2023-12-22T09:28:24;9.30;99.90
17992;DHT22;9121;50.926;5.340;2023-12-22T09:30:51;9.30;99.90
17992;DHT22;9121;50.926;5.340;2023-12-22T09:33:19;9.30;99.90
17992;DHT22;9121;50.926;5.340;2023-12-22T09:35:48;9.30;99.90
17992;DHT22;9121;50.926;5.340;2023-12-22T09:38:16;9.40;99.90
17992;DHT22;9121;50.926;5.340;2023-12-22T09:40:43;9.40;99.90
17992;DHT22;9121;50.926;5.340;2023-12-22T09:43:13;9.50;99.90
17992;DHT22;9121;50.926;5.340;2023-12-22T09:45:41;9.50;99.90
17992;DHT22;9121;50.926;5.340;2023-12-22T09:48:09;9.60;99.90
17992;DHT22;9121;50.926;5.340;2023-12-22T09:50:41;9.70;99.90
17992;DHT22;9121;50.926;5.340;2023-12-22T09:53:09;9.70;99.90
17992;DHT22;9121;50.926;5.340;2023-12-22T09:55:38;9.80;99.90
17992;DHT22;9121;50.926;5.340;2023-12-22T09:58:06;9.80;99.90
17992;DHT22;9121;50.926;5.340;2023-12-22T10:00:36;9.80;99.90
17992;DHT22;9121;50.926;5.340;2023-12-22T10:03:04;9.80;99.90
17992;DHT22;9121;50.926;5.340;2023-12-22T10:05:32;9.80;99.90
17992;DHT22;9121;50.926;5.340;2023-12-22T10:08:02;9.80;99.90
17992;DHT22;9121;50.926;5.340;2023-12-22T10:10:30;9.90;99.90
17992;DHT22;9121;50.926;5.340;2023-12-22T10:12:59;9.90;99.90
17992;DHT22;9121;50.926;5.340;2023-12-22T10:15:30;9.90;99.90
17992;DHT22;9121;50.926;5.340;2023-12-22T10:17:57;9.90;99.90
17992;DHT22;9121;50.926;5.340;2023-12-22T10:20:24;9.90;99.90
17992;DHT22;9121;50.926;5.340;2023-12-22T10:22:51;9.90;99.90
17992;DHT22;9121;50.926;5.340;2023-12-22T10:25:23;9.90;99.90
17992;DHT22;9121;50.926;5.340;2023-12-22T10:27:54;9.80;99.90
17992;DHT22;9121;50.926;5.340;2023-12-22T10:30:22;9.70;99.90
17992;DHT22;9121;50.926;5.340;2023-12-22T10:32:50;9.70;99.90
17992;DHT22;9121;50.926;5.340;2023-12-22T10:35:18;9.70;99.90
17992;DHT22;9121;50.926;5.340;2023-12-22T10:37:46;9.70;99.90
17992;DHT22;9121;50.926;5.340;2023-12-22T10:40:13;9.70;99.90
17992;DHT22;9121;50.926;5.340;2023-12-22T10:42:42;9.80;99.90
17992;DHT22;9121;50.926;5.340;2023-12-22T10:45:09;9.80;99.90
17992;DHT22;9121;50.926;5.340;2023-12-22T10:47:38;9.80;99.90
17992;DHT22;9121;50.926;5.340;2023-12-22T10:50:06;9.80;99.90
17992;DHT22;9121;50.926;5.340;2023-12-22T10:52:34;9.90;99.90
17992;DHT22;9121;50.926;5.340;2023-12-22T10:55:01;9.90;99.90
17992;DHT22;9121;50.926;5.340;2023-12-22T10:57:28;10.00;99.90
17992;DHT22;9121;50.926;5.340;2023-12-22T10:59:57;10.00;99.90
17992;DHT22;9121;50.926;5.340;2023-12-22T11:02:28;10.00;99.90
17992;DHT22;9121;50.926;5.340;2023-12-22T11:04:58;10.10;99.90
17992;DHT22;9121;50.926;5.340;2023-12-22T11:07:28;10.10;99.90
17992;DHT22;9121;50.926;5.340;2023-12-22T11:09:56;10.20;99.90
17992;DHT22;9121;50.926;5.340;2023-12-22T11:12:30;10.20;99.90
17992;DHT22;9121;50.926;5.340;2023-12-22T11:15:00;10.20;99.90
17992;DHT22;9121;50.926;5.340;2023-12-22T11:17:28;10.20;99.90
17992;DHT22;9121;50.926;5.340;2023-12-22T11:19:56;10.30;99.90
17992;DHT22;9121;50.926;5.340;2023-12-22T11:22:24;10.30;99.90
17992;DHT22;9121;50.926;5.340;2023-12-22T11:24:52;10.30;99.90
17992;DHT22;9121;50.926;5.340;2023-12-22T11:27:20;10.30;99.90
17992;DHT22;9121;50.926;5.340;2023-12-22T11:29:48;10.30;99.90
17992;DHT22;9121;50.926;5.340;2023-12-22T11:32:18;10.30;99.90
17992;DHT22;9121;50.926;5.340;2023-12-22T11:34:46;10.30;99.90
17992;DHT22;9121;50.926;5.340;2023-12-22T11:37:14;10.30;99.90
17992;DHT22;9121;50.926;5.340;2023-12-22T11:39:42;10.30;99.90
17992;DHT22;9121;50.926;5.340;2023-12-22T11:42:11;10.30;99.90
17992;DHT22;9121;50.926;5.340;2023-12-22T11:44:39;10.30;99.90
17992;DHT22;9121;50.926;5.340;2023-12-22T11:47:07;10.20;99.90
17992;DHT22;9121;50.926;5.340;2023-12-22T11:49:36;10.20;99.90
17992;DHT22;9121;50.926;5.340;2023-12-22T11:52:10;10.30;99.90
17992;DHT22;9121;50.926;5.340;2023-12-22T11:54:44;10.30;99.90
17992;DHT22;9121;50.926;5.340;2023-12-22T11:57:30;10.30;99.90
17992;DHT22;9121;50.926;5.340;2023-12-22T11:59:58;10.20;99.90
17992;DHT22;9121;50.926;5.340;2023-12-22T12:02:30;10.30;99.90
17992;DHT22;9121;50.926;5.340;2023-12-22T12:04:59;10.30;99.90
17992;DHT22;9121;50.926;5.340;2023-12-22T12:07:40;10.30;99.90
17992;DHT22;9121;50.926;5.340;2023-12-22T12:10:10;10.40;99.90
17992;DHT22;9121;50.926;5.340;2023-12-22T12:12:37;10.50;99.90
17992;DHT22;9121;50.926;5.340;2023-12-22T12:15:10;10.50;99.90
17992;DHT22;9121;50.926;5.340;2023-12-22T12:17:41;10.50;99.90
17992;DHT22;9121;50.926;5.340;2023-12-22T12:20:11;10.60;99.90
17992;DHT22;9121;50.926;5.340;2023-12-22T12:22:38;10.60;99.90
17992;DHT22;9121;50.926;5.340;2023-12-22T12:25:09;10.50;99.90
17992;DHT22;9121;50.926;5.340;2023-12-22T12:27:37;10.50;99.90
17992;DHT22;9121;50.926;5.340;2023-12-22T12:30:12;10.50;99.90
17992;DHT22;9121;50.926;5.340;2023-12-22T12:32:42;10.50;99.90
17992;DHT22;9121;50.926;5.340;2023-12-22T12:35:12;10.50;99.90
17992;DHT22;9121;50.926;5.340;2023-12-22T12:37:40;10.60;99.90
17992;DHT22;9121;50.926;5.340;2023-12-22T12:40:11;10.60;99.90
17992;DHT22;9121;50.926;5.340;2023-12-22T12:42:38;10.60;99.90
17992;DHT22;9121;50.926;5.340;2023-12-22T12:45:07;10.60;99.90
17992;DHT22;9121;50.926;5.340;2023-12-22T12:47:34;10.60;99.90
17992;DHT22;9121;50.926;5.340;2023-12-22T12:50:01;10.60;99.90
17992;DHT22;9121;50.926;5.340;2023-12-22T12:52:30;10.60;99.90
17992;DHT22;9121;50.926;5.340;2023-12-22T12:54:57;10.60;99.90
17992;DHT22;9121;50.926;5.340;2023-12-22T12:57:26;10.70;99.90
17992;DHT22;9121;50.926;5.340;2023-12-22T12:59:53;10.70;99.90
17992;DHT22;9121;50.926;5.340;2023-12-22T13:02:20;10.70;99.90
17992;DHT22;9121;50.926;5.340;2023-12-22T13:04:48;10.70;99.90
17992;DHT22;9121;50.926;5.340;2023-12-22T13:07:23;10.70;99.90
17992;DHT22;9121;50.926;5.340;2023-12-22T13:09:52;10.70;99.90
17992;DHT22;9121;50.926;5.340;2023-12-22T13:12:23;10.70;99.90
17992;DHT22;9121;50.926;5.340;2023-12-22T13:14:51;10.70;99.90
17992;DHT22;9121;50.926;5.340;2023-12-22T13:17:18;10.60;99.90
17992;DHT22;9121;50.926;5.340;2023-12-22T13:19:45;10.60;99.90
17992;DHT22;9121;50.926;5.340;2023-12-22T13:22:12;10.60;99.90
17992;DHT22;9121;50.926;5.340;2023-12-22T13:24:39;10.70;99.90
17992;DHT22;9121;50.926;5.340;2023-12-22T13:27:08;10.70;99.90
17992;DHT22;9121;50.926;5.340;2023-12-22T13:29:45;10.70;99.90
17992;DHT22;9121;50.926;5.340;2023-12-22T13:32:17;10.80;99.90
17992;DHT22;9121;50.926;5.340;2023-12-22T13:34:49;10.80;99.90
17992;DHT22;9121;50.926;5.340;2023-12-22T13:37:16;10.80;99.90
17992;DHT22;9121;50.926;5.340;2023-12-22T13:39:44;10.70;99.90
17992;DHT22;9121;50.926;5.340;2023-12-22T13:42:16;10.80;99.90
17992;DHT22;9121;50.926;5.340;2023-12-22T13:44:45;10.70;99.90
17992;DHT22;9121;50.926;5.340;2023-12-22T13:47:15;10.70;99.90
17992;DHT22;9121;50.926;5.340;2023-12-22T13:49:42;10.70;99.90
17992;DHT22;9121;50.926;5.340;2023-12-22T13:52:25;10.70;99.90
17992;DHT22;9121;50.926;5.340;2023-12-22T13:54:52;10.70;99.90
17992;DHT22;9121;50.926;5.340;2023-12-22T13:57:23;10.70;99.90
17992;DHT22;9121;50.926;5.340;2023-12-22T13:59:50;10.70;99.90
17992;DHT22;9121;50.926;5.340;2023-12-22T14:02:20;10.70;99.90
17992;DHT22;9121;50.926;5.340;2023-12-22T14:04:47;10.80;99.90
17992;DHT22;9121;50.926;5.340;2023-12-22T14:07:14;10.80;99.90
17992;DHT22;9121;50.926;5.340;2023-12-22T14:09:41;10.80;99.90
17992;DHT22;9121;50.926;5.340;2023-12-22T14:12:08;10.80;99.90
17992;DHT22;9121;50.926;5.340;2023-12-22T14:14:37;10.80;99.90
17992;DHT22;9121;50.926;5.340;2023-12-22T14:17:04;10.80;99.90
17992;DHT22;9121;50.926;5.340;2023-12-22T14:19:31;10.80;99.90
17992;DHT22;9121;50.926;5.340;2023-12-22T14:21:58;10.80;99.90
17992;DHT22;9121;50.926;5.340;2023-12-22T14:24:25;10.80;99.90
17992;DHT22;9121;50.926;5.340;2023-12-22T14:26:53;10.80;99.90
17992;DHT22;9121;50.926;5.340;2023-12-22T14:29:20;10.70;99.90
17992;DHT22;9121;50.926;5.340;2023-12-22T14:31:49;10.70;99.90
17992;DHT22;9121;50.926;5.340;2023-12-22T14:34:16;10.80;99.90
17992;DHT22;9121;50.926;5.340;2023-12-22T14:36:43;10.70;99.90
17992;DHT22;9121;50.926;5.340;2023-12-22T14:39:11;10.70;99.90
17992;DHT22;9121;50.926;5.340;2023-12-22T14:41:39;10.70;99.90
17992;DHT22;9121;50.926;5.340;2023-12-22T14:44:06;10.80;99.90
17992;DHT22;9121;50.926;5.340;2023-12-22T14:46:36;10.80;99.90
17992;DHT22;9121;50.926;5.340;2023-12-22T14:49:05;10.80;99.90
17992;DHT22;9121;50.926;5.340;2023-12-22T14:51:35;10.80;99.90
17992;DHT22;9121;50.926;5.340;2023-12-22T14:54:03;10.80;99.90
17992;DHT22;9121;50.926;5.340;2023-12-22T14:56:30;10.70;99.90
17992;DHT22;9121;50.926;5.340;2023-12-22T14:58:57;10.60;99.90
17992;DHT22;9121;50.926;5.340;2023-12-22T15:01:24;10.50;99.90
17992;DHT22;9121;50.926;5.340;2023-12-22T15:03:51;10.50;99.90
17992;DHT22;9121;50.926;5.340;2023-12-22T15:06:19;10.60;99.90
17992;DHT22;9121;50.926;5.340;2023-12-22T15:08:46;10.60;99.90
17992;DHT22;9121;50.926;5.340;2023-12-22T15:11:13;10.60;99.90
17992;DHT22;9121;50.926;5.340;2023-12-22T15:13:40;10.60;99.90
17992;DHT22;9121;50.926;5.340;2023-12-22T15:16:08;10.60;99.90
17992;DHT22;9121;50.926;5.340;2023-12-22T15:18:35;10.60;99.90
17992;DHT22;9121;50.926;5.340;2023-12-22T15:21:02;10.60;99.90
17992;DHT22;9121;50.926;5.340;2023-12-22T15:23:30;10.60;99.90
17992;DHT22;9121;50.926;5.340;2023-12-22T15:25:57;10.60;99.90
17992;DHT22;9121;50.926;5.340;2023-12-22T15:28:24;10.60;99.90
17992;DHT22;9121;50.926;5.340;2023-12-22T15:30:51;10.60;99.90
17992;DHT22;9121;50.926;5.340;2023-12-22T15:33:18;10.60;99.90
17992;DHT22;9121;50.926;5.340;2023-12-22T15:35:45;10.70;99.90
17992;DHT22;9121;50.926;5.340;2023-12-22T15:38:14;10.70;99.90
17992;DHT22;9121;50.926;5.340;2023-12-22T15:40:42;10.80;99.90
17992;DHT22;9121;50.926;5.340;2023-12-22T15:43:09;10.80;99.90
17992;DHT22;9121;50.926;5.340;2023-12-22T15:45:36;10.80;98.30
17992;DHT22;9121;50.926;5.340;2023-12-22T15:48:03;10.90;96.90
17992;DHT22;9121;50.926;5.340;2023-12-22T15:50:30;10.90;95.80
17992;DHT22;9121;50.926;5.340;2023-12-22T15:52:57;10.90;93.50
17992;DHT22;9121;50.926;5.340;2023-12-22T15:55:24;11.00;93.50
17992;DHT22;9121;50.926;5.340;2023-12-22T15:57:52;10.90;93.00
17992;DHT22;9121;50.926;5.340;2023-12-22T16:00:19;10.80;93.40
17992;DHT22;9121;50.926;5.340;2023-12-22T16:02:46;10.90;94.70
17992;DHT22;9121;50.926;5.340;2023-12-22T16:05:13;10.80;94.80